Time;durP1;ratioP1;P1;durP2;ratioP2;P2;SDS_P1;SDS_P2;PMS_P1;PMS_P2;Temp;Humidity;BMP_temperature;BMP_pressure;BME280_temperature;BME280_humidity;BME280_pressure;Samples;Min_cycle;Max_cycle;Signal;HPM_P1;HPM_P2
2021/04/20 00:01:38;;;;;;;13.85;9.82;;;8.60;99.90;;;;;;5065641;28;20079;-73
2021/04/20 00:04:05;;;;;;;14.15;9.52;;;8.60;99.90;;;;;;5063360;28;20131;-73
2021/04/20 00:06:32;;;;;;;15.90;9.93;;;8.60;99.90;;;;;;5068328;28;20166;-73
2021/04/20 00:08:59;;;;;;;14.45;9.93;;;8.70;99.90;;;;;;5065258;28;20044;-73
2021/04/20 00:11:26;;;;;;;15.10;10.05;;;8.60;99.90;;;;;;5067066;28;20144;-73
2021/04/20 00:13:52;;;;;;;16.30;10.82;;;8.70;99.90;;;;;;5055174;28;20048;-74
2021/04/20 00:16:19;;;;;;;19.38;11.77;;;8.70;99.90;;;;;;5065812;28;20052;-73
2021/04/20 00:18:45;;;;;;;15.82;10.50;;;8.70;99.90;;;;;;5067837;28;20452;-73
2021/04/20 00:21:11;;;;;;;18.45;11.80;;;8.70;99.90;;;;;;5066749;28;20796;-73
2021/04/20 00:23:38;;;;;;;19.55;11.75;;;8.70;99.90;;;;;;5065273;28;20049;-73
2021/04/20 00:26:04;;;;;;;24.52;13.20;;;8.80;99.90;;;;;;5068461;28;20094;-73
2021/04/20 00:28:31;;;;;;;19.65;12.43;;;8.80;99.90;;;;;;5070131;28;20048;-73
2021/04/20 00:30:57;;;;;;;24.08;14.30;;;8.90;99.90;;;;;;5070117;28;20079;-72
2021/04/20 00:33:26;;;;;;;21.90;14.43;;;8.80;99.90;;;;;;5065043;28;20553;-73
2021/04/20 00:35:52;;;;;;;28.42;16.63;;;8.80;99.90;;;;;;5085985;28;20079;-73
2021/04/20 00:38:19;;;;;;;31.13;19.65;;;8.80;99.90;;;;;;5070296;28;20098;-73
2021/04/20 00:40:45;;;;;;;34.33;21.00;;;8.80;99.90;;;;;;5062962;28;20052;-73
2021/04/20 00:43:12;;;;;;;37.22;22.58;;;8.80;99.90;;;;;;5071032;28;20059;-73
2021/04/20 00:45:39;;;;;;;47.53;26.88;;;8.80;99.90;;;;;;5063224;28;20045;-72
2021/04/20 00:48:07;;;;;;;44.95;26.27;;;8.80;99.90;;;;;;5066232;28;20106;-73
2021/04/20 00:50:39;;;;;;;50.08;26.70;;;8.80;99.90;;;;;;5067892;28;20102;-73
2021/04/20 00:53:08;;;;;;;51.42;27.30;;;8.80;99.90;;;;;;5071143;28;20052;-74
2021/04/20 00:55:35;;;;;;;44.03;25.05;;;8.90;99.90;;;;;;5068551;28;20045;-73
2021/04/20 00:58:03;;;;;;;42.45;25.02;;;9.00;99.90;;;;;;5068061;28;20530;-73
2021/04/20 01:00:31;;;;;;;46.05;26.02;;;9.00;99.90;;;;;;5064780;28;20549;-74
2021/04/20 01:03:00;;;;;;;46.38;26.10;;;8.80;99.90;;;;;;5062181;28;20046;-73
2021/04/20 01:05:33;;;;;;;40.53;24.75;;;8.70;99.90;;;;;;5068285;28;20040;-73
2021/04/20 01:08:07;;;;;;;43.10;24.75;;;8.70;99.90;;;;;;5060739;28;20106;-73
2021/04/20 01:10:41;;;;;;;39.13;22.63;;;8.80;99.90;;;;;;5072076;28;20044;-73
2021/04/20 01:13:10;;;;;;;43.00;23.17;;;8.90;99.90;;;;;;5070601;28;20617;-73
2021/04/20 01:15:38;;;;;;;34.30;19.88;;;9.00;99.90;;;;;;5055542;28;20045;-73
2021/04/20 01:18:16;;;;;;;38.25;21.65;;;9.00;99.90;;;;;;5071578;28;20395;-73
2021/04/20 01:20:45;;;;;;;40.92;21.00;;;8.80;99.90;;;;;;5067332;28;20048;-73
2021/04/20 01:23:14;;;;;;;31.60;20.48;;;8.90;99.90;;;;;;5066772;28;20044;-74
2021/04/20 01:25:59;;;;;;;32.22;18.83;;;8.90;99.90;;;;;;5068115;28;20082;-73
2021/04/20 01:28:26;;;;;;;28.65;17.20;;;8.80;99.90;;;;;;5067639;28;20127;-73
2021/04/20 01:30:53;;;;;;;29.48;17.05;;;8.40;99.90;;;;;;5083740;28;20090;-73
2021/04/20 01:33:19;;;;;;;24.40;15.25;;;8.40;99.90;;;;;;5066333;28;20056;-74
2021/04/20 01:35:46;;;;;;;27.23;17.55;;;8.40;99.90;;;;;;5071064;28;20516;-73
2021/04/20 01:38:12;;;;;;;27.40;16.27;;;8.50;99.90;;;;;;5072618;28;20091;-73
2021/04/20 01:40:39;;;;;;;27.48;15.63;;;8.50;99.90;;;;;;5073079;28;20084;-73
2021/04/20 01:43:06;;;;;;;27.27;15.93;;;8.50;99.90;;;;;;5071585;28;20128;-73
2021/04/20 01:45:32;;;;;;;24.27;15.07;;;8.50;99.90;;;;;;5073491;28;20041;-73
2021/04/20 01:47:59;;;;;;;21.65;13.27;;;8.40;99.90;;;;;;5073124;28;20114;-73
2021/04/20 01:50:26;;;;;;;20.13;13.55;;;8.30;99.90;;;;;;5068836;28;20144;-73
2021/04/20 01:52:53;;;;;;;26.90;14.60;;;8.30;99.90;;;;;;5067024;28;20049;-74
2021/04/20 01:55:20;;;;;;;23.38;14.38;;;8.40;99.90;;;;;;5073891;28;20396;-73
2021/04/20 01:57:49;;;;;;;24.45;15.00;;;8.10;99.90;;;;;;5071800;28;20106;-73
2021/04/20 02:00:18;;;;;;;24.33;14.00;;;7.90;99.90;;;;;;5071759;28;20110;-73
2021/04/20 02:02:46;;;;;;;24.23;15.63;;;7.80;99.90;;;;;;5071429;28;20118;-73
2021/04/20 02:05:15;;;;;;;23.58;15.40;;;7.70;99.90;;;;;;5072465;28;20048;-73
2021/04/20 02:07:42;;;;;;;25.02;14.35;;;7.80;99.90;;;;;;5084248;28;20491;-73
2021/04/20 02:10:12;;;;;;;24.38;15.40;;;8.00;99.90;;;;;;5073370;28;20068;-73
2021/04/20 02:12:39;;;;;;;27.90;15.63;;;8.10;99.90;;;;;;5062371;28;20361;-72
2021/04/20 02:15:17;;;;;;;28.63;15.73;;;8.00;99.90;;;;;;5063597;28;20053;-73
2021/04/20 02:17:44;;;;;;;24.67;14.43;;;7.90;99.90;;;;;;5066914;28;20097;-73
2021/04/20 02:20:13;;;;;;;24.75;14.70;;;8.00;99.90;;;;;;5067390;28;20413;-72
2021/04/20 02:22:46;;;;;;;30.00;14.80;;;8.10;99.90;;;;;;5066981;28;20053;-73
2021/04/20 02:25:14;;;;;;;26.90;16.77;;;7.90;99.90;;;;;;5063719;28;21455;-73
2021/04/20 02:27:41;;;;;;;31.02;17.40;;;7.70;99.90;;;;;;5070170;28;20443;-73
2021/04/20 02:30:11;;;;;;;28.30;17.42;;;7.60;99.90;;;;;;5068435;28;20075;-72
2021/04/20 02:32:38;;;;;;;33.03;19.30;;;7.70;99.90;;;;;;5068824;28;20106;-74
2021/04/20 02:35:07;;;;;;;30.33;19.10;;;7.70;99.90;;;;;;5067499;28;20307;-73
2021/04/20 02:37:38;;;;;;;33.85;19.58;;;7.60;99.90;;;;;;5071774;28;20045;-73
2021/04/20 02:40:09;;;;;;;30.98;17.23;;;7.60;99.90;;;;;;5068237;28;20083;-73
2021/04/20 02:42:37;;;;;;;26.70;15.90;;;7.70;99.90;;;;;;5071496;28;20487;-73
2021/04/20 02:45:06;;;;;;;27.52;16.15;;;7.70;99.90;;;;;;5070940;28;20056;-73
2021/04/20 02:47:34;;;;;;;23.67;14.80;;;7.80;99.90;;;;;;5070617;28;20139;-73
2021/04/20 02:50:17;;;;;;;24.20;14.13;;;7.90;99.90;;;;;;5071596;28;20049;-73
2021/04/20 02:52:47;;;;;;;24.10;14.88;;;8.10;99.90;;;;;;5073115;28;20090;-74
2021/04/20 02:55:14;;;;;;;28.95;15.05;;;7.70;99.90;;;;;;5070106;28;20094;-74
2021/04/20 02:57:44;;;;;;;27.17;14.93;;;7.70;99.90;;;;;;5072657;28;20056;-73
2021/04/20 03:00:20;;;;;;;22.85;14.45;;;7.80;99.90;;;;;;5066890;28;20099;-73
2021/04/20 03:02:58;;;;;;;24.17;14.88;;;8.00;99.90;;;;;;5070435;28;20423;-73
2021/04/20 03:05:27;;;;;;;32.17;16.25;;;8.10;99.90;;;;;;5071871;28;20064;-73
2021/04/20 03:07:54;;;;;;;26.33;15.52;;;8.10;99.90;;;;;;5072555;28;20113;-73
2021/04/20 03:10:21;;;;;;;26.35;16.17;;;8.00;99.90;;;;;;5066324;28;20053;-73
2021/04/20 03:12:48;;;;;;;24.35;15.50;;;7.90;99.90;;;;;;5063743;28;20052;-73
2021/04/20 03:15:17;;;;;;;25.60;15.55;;;7.80;99.90;;;;;;5065145;28;20076;-73
2021/04/20 03:17:47;;;;;;;23.93;15.20;;;7.80;99.90;;;;;;5069705;28;20052;-73
2021/04/20 03:20:16;;;;;;;24.75;14.73;;;7.80;99.90;;;;;;5068896;28;20476;-73
2021/04/20 03:22:43;;;;;;;22.83;14.15;;;7.80;99.90;;;;;;5070316;28;20124;-73
2021/04/20 03:25:10;;;;;;;27.65;15.63;;;8.00;99.90;;;;;;5069793;28;20071;-73
2021/04/20 03:27:41;;;;;;;27.98;14.88;;;8.10;99.90;;;;;;5068606;28;20044;-73
2021/04/20 03:30:12;;;;;;;28.20;15.70;;;8.00;99.90;;;;;;5071710;28;20062;-73
2021/04/20 03:32:40;;;;;;;;;;;8.00;99.90;;;;;;5072279;28;20044;-72
2021/04/20 03:35:13;;;;;;;28.42;14.98;;;8.00;99.90;;;;;;5065448;28;20011;-73
2021/04/20 03:37:51;;;;;;;25.77;15.00;;;7.80;99.90;;;;;;5059187;28;20086;-73
2021/04/20 03:40:20;;;;;;;25.75;15.80;;;8.00;99.90;;;;;;5066082;28;20070;-73
2021/04/20 03:42:56;;;;;;;30.88;17.08;;;7.90;99.90;;;;;;5068546;28;20048;-73
2021/04/20 03:45:37;;;;;;;28.77;16.98;;;7.90;99.90;;;;;;5067077;28;20086;-73
2021/04/20 03:48:18;;;;;;;26.15;17.15;;;7.90;99.90;;;;;;5053708;28;20049;-72
2021/04/20 03:50:53;;;;;;;32.90;18.17;;;7.90;99.90;;;;;;5072308;28;20138;-73
2021/04/20 03:53:22;;;;;;;24.55;16.15;;;7.90;99.90;;;;;;5069033;28;20094;-74
2021/04/20 03:55:50;;;;;;;25.50;15.57;;;7.80;99.90;;;;;;5062504;28;20135;-74
2021/04/20 03:58:20;;;;;;;25.33;16.48;;;7.80;99.90;;;;;;5072227;28;20098;-73
2021/04/20 04:00:51;;;;;;;26.65;16.02;;;7.80;99.90;;;;;;5065904;28;20053;-73
2021/04/20 04:03:23;;;;;;;27.30;17.35;;;7.70;99.90;;;;;;5067346;28;20484;-73
2021/04/20 04:05:51;;;;;;;28.33;16.00;;;7.70;99.90;;;;;;5070498;28;20121;-73
2021/04/20 04:08:19;;;;;;;26.92;15.88;;;7.60;99.90;;;;;;5069846;28;20094;-73
2021/04/20 04:10:49;;;;;;;28.20;15.25;;;7.60;99.90;;;;;;5070166;28;20139;-73
2021/04/20 04:13:20;;;;;;;30.17;16.50;;;7.60;99.90;;;;;;5066114;28;20072;-73
2021/04/20 04:15:48;;;;;;;30.75;16.27;;;7.70;99.90;;;;;;5065611;28;20109;-73
2021/04/20 04:18:16;;;;;;;26.17;15.93;;;7.60;99.90;;;;;;5062403;28;20052;-74
2021/04/20 04:20:43;;;;;;;27.35;15.88;;;7.60;99.90;;;;;;5070435;28;20080;-73
2021/04/20 04:23:14;;;;;;;24.52;14.52;;;7.60;99.90;;;;;;5071106;28;20577;-73
2021/04/20 04:25:49;;;;;;;27.73;14.10;;;7.80;99.90;;;;;;5068900;28;20407;-74
2021/04/20 04:28:18;;;;;;;28.95;16.30;;;8.00;99.90;;;;;;5071871;28;20045;-73
2021/04/20 04:30:46;;;;;;;24.25;14.85;;;8.00;99.90;;;;;;5066679;28;20067;-73
2021/04/20 04:33:13;;;;;;;25.70;14.85;;;7.90;99.90;;;;;;5069252;28;20048;-73
2021/04/20 04:35:42;;;;;;;22.92;14.45;;;7.80;99.90;;;;;;5063170;28;20069;-73
2021/04/20 04:38:11;;;;;;;22.92;14.70;;;7.70;99.90;;;;;;5071512;28;20044;-73
2021/04/20 04:40:38;;;;;;;27.50;15.23;;;7.70;99.90;;;;;;5069146;28;20080;-73
2021/04/20 04:43:05;;;;;;;27.67;14.52;;;7.60;99.90;;;;;;5069789;28;20087;-72
2021/04/20 04:45:32;;;;;;;27.67;15.48;;;7.60;99.90;;;;;;5071966;28;20458;-73
2021/04/20 04:47:58;;;;;;;27.08;14.02;;;7.50;99.90;;;;;;5072368;28;20052;-73
2021/04/20 04:50:26;;;;;;;27.58;14.90;;;7.30;99.90;;;;;;5075234;28;20160;-73
2021/04/20 04:52:53;;;;;;;23.27;14.57;;;7.30;99.90;;;;;;5073030;28;20080;-73
2021/04/20 04:55:20;;;;;;;27.05;14.55;;;7.20;99.90;;;;;;5068102;28;20088;-72
2021/04/20 04:57:50;;;;;;;26.00;14.10;;;7.20;99.90;;;;;;5069460;28;20041;-73
2021/04/20 05:00:17;;;;;;;25.30;14.38;;;7.30;99.90;;;;;;5073560;28;20045;-72
2021/04/20 05:02:44;;;;;;;26.75;14.85;;;7.40;99.90;;;;;;5071423;28;20049;-73
2021/04/20 05:05:15;;;;;;;25.17;14.25;;;7.40;99.90;;;;;;5073118;28;20094;-73
2021/04/20 05:07:42;;;;;;;24.50;14.45;;;7.50;99.90;;;;;;5074436;28;20052;-72
2021/04/20 05:10:11;;;;;;;22.92;14.02;;;7.50;99.90;;;;;;5074014;28;20048;-73
2021/04/20 05:12:39;;;;;;;30.67;15.73;;;7.40;99.90;;;;;;5070365;28;20501;-73
2021/04/20 05:15:10;;;;;;;25.92;14.15;;;7.40;99.90;;;;;;5084411;28;20388;-73
2021/04/20 05:17:37;;;;;;;24.95;14.90;;;7.50;99.90;;;;;;5072927;28;20044;-72
2021/04/20 05:20:05;;;;;;;23.77;14.20;;;7.60;99.90;;;;;;5073036;28;20053;-72
2021/04/20 05:22:34;;;;;;;27.23;15.35;;;7.60;99.90;;;;;;5073829;28;20105;-72
2021/04/20 05:25:06;;;;;;;28.95;15.48;;;7.50;99.90;;;;;;5073105;28;20076;-74
2021/04/20 05:27:33;;;;;;;26.52;14.27;;;7.70;99.90;;;;;;5071748;28;20106;-72
2021/04/20 05:29:59;;;;;;;26.33;14.88;;;7.70;99.90;;;;;;5072203;28;20045;-73
2021/04/20 05:32:26;;;;;;;26.92;14.05;;;7.60;99.90;;;;;;5071429;28;20053;-73
2021/04/20 05:34:52;;;;;;;28.77;15.20;;;7.60;99.90;;;;;;5083846;28;20526;-73
2021/04/20 05:37:38;;;;;;;29.92;16.23;;;7.80;99.90;;;;;;5074408;28;20075;-72
2021/04/20 05:40:14;;;;;;;30.23;15.40;;;8.00;99.90;;;;;;5071525;28;20380;-73
2021/04/20 05:42:41;;;;;;;32.13;14.90;;;8.10;99.90;;;;;;5072330;28;20094;-72
2021/04/20 05:45:10;;;;;;;27.52;15.65;;;8.10;99.90;;;;;;5070514;28;20044;-72
2021/04/20 05:47:41;;;;;;;31.55;15.65;;;8.50;99.90;;;;;;5073949;28;20076;-72
2021/04/20 05:50:11;;;;;;;29.48;14.88;;;8.70;99.90;;;;;;5071432;28;20518;-73
2021/04/20 05:52:38;;;;;;;25.23;14.57;;;8.60;99.90;;;;;;5073259;28;20088;-73
2021/04/20 05:55:06;;;;;;;27.95;15.35;;;8.70;99.90;;;;;;5070294;28;20052;-73
2021/04/20 05:57:33;;;;;;;29.30;16.10;;;9.30;99.90;;;;;;5072669;28;20051;-72
2021/04/20 06:00:00;;;;;;;26.55;15.85;;;9.30;99.90;;;;;;5085788;28;20044;-74
2021/04/20 06:02:31;;;;;;;30.60;15.68;;;9.20;99.90;;;;;;5056884;28;20445;-73
2021/04/20 06:05:01;;;;;;;31.13;15.95;;;9.40;99.90;;;;;;5069508;28;20053;-73
2021/04/20 06:07:28;;;;;;;27.27;14.30;;;9.70;99.90;;;;;;5072603;28;20472;-73
2021/04/20 06:09:55;;;;;;;24.35;14.13;;;9.70;98.70;;;;;;5072235;28;20140;-72
2021/04/20 06:12:22;;;;;;;29.85;14.63;;;9.40;99.30;;;;;;5067554;28;20072;-72
2021/04/20 06:14:50;;;;;;;24.33;14.60;;;9.20;99.70;;;;;;5070671;28;20155;-73
2021/04/20 06:17:17;;;;;;;23.30;14.45;;;9.00;99.90;;;;;;5062798;28;20094;-72
2021/04/20 06:19:44;;;;;;;29.15;15.90;;;9.10;99.90;;;;;;5071282;28;20052;-72
2021/04/20 06:22:14;;;;;;;29.95;15.95;;;9.30;99.90;;;;;;5071602;28;20070;-73
2021/04/20 06:24:42;;;;;;;28.65;14.82;;;9.30;99.90;;;;;;5071686;28;20057;-73
2021/04/20 06:27:08;;;;;;;25.95;15.93;;;9.80;99.90;;;;;;5067180;28;20045;-72
2021/04/20 06:29:37;;;;;;;29.92;16.05;;;10.40;97.70;;;;;;5069541;28;20045;-73
2021/04/20 06:32:04;;;;;;;29.48;16.73;;;10.20;96.50;;;;;;5070631;28;20126;-73
2021/04/20 06:34:31;;;;;;;25.80;14.90;;;10.30;97.30;;;;;;5073578;28;20058;-74
2021/04/20 06:36:58;;;;;;;27.00;15.50;;;10.80;94.20;;;;;;5071808;28;20048;-73
2021/04/20 06:39:25;;;;;;;35.97;17.88;;;10.00;96.50;;;;;;5072682;28;20495;-73
2021/04/20 06:41:56;;;;;;;34.88;18.38;;;9.90;98.40;;;;;;5073671;28;20049;-73
2021/04/20 06:44:32;;;;;;;34.63;17.48;;;9.90;98.60;;;;;;5070906;28;20044;-73
2021/04/20 06:47:22;;;;;;;31.80;17.85;;;10.10;97.60;;;;;;5068413;28;20063;-73
2021/04/20 06:50:05;;;;;;;31.95;17.67;;;10.60;96.40;;;;;;5056352;28;20084;-74
2021/04/20 06:52:47;;;;;;;34.85;19.23;;;10.80;94.80;;;;;;5087344;28;20060;-73
2021/04/20 06:55:24;;;;;;;33.08;18.52;;;10.70;94.90;;;;;;5064672;28;20483;-73
2021/04/20 06:58:13;;;;;;;32.38;18.70;;;10.60;94.80;;;;;;5062872;28;20480;-73
2021/04/20 07:00:43;;;;;;;43.03;21.90;;;10.40;96.10;;;;;;5069120;28;20049;-73
2021/04/20 07:04:07;;;;;;;43.90;21.67;;;10.80;95.30;;;;;;5071578;28;20118;-73
2021/04/20 07:07:00;;;;;;;44.53;22.48;;;10.90;93.70;;;;;;5030018;28;20076;-74
2021/04/20 07:09:30;;;;;;;43.05;22.80;;;10.60;94.70;;;;;;5010315;28;20045;-74
2021/04/20 07:11:58;;;;;;;49.23;26.23;;;10.60;94.80;;;;;;5055571;28;20052;-73
2021/04/20 07:14:35;;;;;;;47.17;25.70;;;10.30;95.20;;;;;;5069827;28;20048;-73
2021/04/20 07:17:45;;;;;;;45.15;25.10;;;10.50;95.80;;;;;;5070327;28;20056;-73
2021/04/20 07:20:32;;;;;;;62.58;28.60;;;10.90;93.80;;;;;;5066020;28;20052;-71
2021/04/20 07:23:16;;;;;;;53.78;29.38;;;10.70;94.20;;;;;;5056429;28;20098;-72
2021/04/20 07:26:03;;;;;;;54.15;27.17;;;10.50;95.40;;;;;;5048866;28;20060;-72
2021/04/20 07:29:15;;;;;;;51.33;26.25;;;10.60;95.50;;;;;;5049324;28;20059;-73
2021/04/20 07:32:07;;;;;;;77.38;42.65;;;11.70;92.10;;;;;;5049488;28;20067;-72
2021/04/20 07:34:48;;;;;;;57.78;28.75;;;11.20;93.50;;;;;;5050289;28;20048;-73
2021/04/20 07:37:39;;;;;;;61.13;30.88;;;10.90;94.40;;;;;;5047302;28;20139;-72
2021/04/20 07:40:35;;;;;;;59.42;30.23;;;10.60;95.00;;;;;;5050336;28;20459;-72
2021/04/20 07:43:37;;;;;;;64.82;31.25;;;10.70;96.10;;;;;;5049632;28;20135;-72
2021/04/20 07:46:30;;;;;;;62.03;30.15;;;11.30;94.70;;;;;;4973702;28;20476;-73
2021/04/20 07:49:11;;;;;;;61.35;31.95;;;11.70;92.80;;;;;;5050064;28;20079;-72
2021/04/20 07:52:08;;;;;;;55.72;30.30;;;11.20;93.40;;;;;;5048448;28;20057;-72
2021/04/20 07:54:45;;;;;;;57.72;28.15;;;11.80;92.60;;;;;;5051620;28;20044;-75
2021/04/20 07:57:26;;;;;;;61.75;29.70;;;12.20;91.10;;;;;;5048643;28;20049;-76
2021/04/20 07:59:52;;;;;;;58.25;29.15;;;11.90;91.40;;;;;;5050351;28;20131;-73
2021/04/20 08:02:50;;;;;;;57.80;31.63;;;12.40;90.40;;;;;;5050799;28;20143;-77
2021/04/20 08:05:33;;;;;;;55.58;27.67;;;12.50;89.90;;;;;;5045493;28;20136;-76
2021/04/20 08:08:16;;;;;;;60.55;30.55;;;12.40;89.40;;;;;;5050994;28;20377;-76
2021/04/20 08:11:01;;;;;;;60.58;30.48;;;12.70;89.40;;;;;;5048518;28;20048;-76
2021/04/20 08:13:36;;;;;;;57.85;30.25;;;12.50;88.30;;;;;;5049677;28;20075;-76
2021/04/20 08:16:27;;;;;;;53.90;29.83;;;12.80;86.80;;;;;;5066438;28;20052;-76
2021/04/20 08:19:00;;;;;;;;;;;12.70;86.70;;;;;;5051260;28;20072;-76
2021/04/20 08:21:29;;;;;;;60.80;30.58;;;12.50;86.50;;;;;;5051360;28;20063;-75
2021/04/20 08:23:58;;;;;;;63.38;31.40;;;12.60;87.30;;;;;;5052730;28;20480;-76
2021/04/20 08:26:33;;;;;;;61.92;31.75;;;12.40;88.20;;;;;;5069031;28;21205;-76
2021/04/20 08:29:05;;;;;;;55.90;29.50;;;12.30;88.60;;;;;;5071520;28;20080;-77
2021/04/20 08:31:53;;;;;;;58.22;30.35;;;12.40;88.50;;;;;;5052877;28;20062;-75
2021/04/20 08:34:22;;;;;;;62.65;30.23;;;12.70;86.40;;;;;;5054648;28;20048;-74
2021/04/20 08:37:31;;;;;;;58.22;29.08;;;13.10;85.60;;;;;;5052706;28;20172;-75
2021/04/20 08:40:00;;;;;;;58.83;29.15;;;13.70;82.30;;;;;;5053142;28;20415;-76
2021/04/20 08:42:48;;;;;;;56.92;28.92;;;14.80;78.20;;;;;;5054081;28;20487;-76
2021/04/20 08:45:50;;;;;;;57.85;28.00;;;14.50;74.70;;;;;;5055569;28;20053;-76
2021/04/20 08:48:55;;;;;;;55.00;30.33;;;14.10;76.50;;;;;;5042431;28;20057;-75
2021/04/20 08:51:47;;;;;;;61.80;28.80;;;13.30;78.60;;;;;;5039530;28;20052;-75
2021/04/20 08:54:31;;;;;;;64.70;32.95;;;13.20;80.50;;;;;;5054702;28;20114;-75
2021/04/20 08:57:16;;;;;;;61.25;30.60;;;12.90;82.20;;;;;;5052529;28;20131;-75
2021/04/20 08:59:53;;;;;;;61.55;31.80;;;13.30;80.40;;;;;;5053926;28;20581;-76
2021/04/20 09:02:38;;;;;;;71.78;34.95;;;13.50;80.30;;;;;;5052958;28;20049;-75
2021/04/20 09:05:30;;;;;;;55.13;30.83;;;14.20;78.20;;;;;;5052985;28;20040;-75
2021/04/20 09:08:07;;;;;;;55.67;28.38;;;13.80;77.10;;;;;;5057809;28;20057;-76
2021/04/20 09:10:45;;;;;;;53.17;27.80;;;14.80;76.20;;;;;;5052816;28;20441;-75
2021/04/20 09:13:20;;;;;;;51.95;27.08;;;16.30;69.20;;;;;;5053454;28;20052;-75
2021/04/20 09:16:00;;;;;;;46.38;24.50;;;17.30;64.80;;;;;;5051623;28;20061;-75
2021/04/20 09:18:44;;;;;;;41.95;24.27;;;15.90;65.40;;;;;;5054867;28;20056;-74
2021/04/20 09:21:44;;;;;;;42.83;24.60;;;14.90;69.30;;;;;;5052899;28;20522;-75
2021/04/20 09:24:17;;;;;;;55.97;25.45;;;15.90;66.80;;;;;;5052151;28;20055;-75
2021/04/20 09:27:23;;;;;;;50.22;26.00;;;17.10;63.30;;;;;;5055590;28;20087;-75
2021/04/20 09:30:02;;;;;;;46.20;23.83;;;17.20;61.20;;;;;;5048325;28;20149;-76
2021/04/20 09:32:35;;;;;;;41.42;22.05;;;17.70;58.30;;;;;;5052254;28;20139;-76
2021/04/20 09:35:04;;;;;;;46.90;25.70;;;16.70;59.60;;;;;;5049730;28;20457;-76
2021/04/20 09:37:36;;;;;;;54.08;27.65;;;17.10;59.30;;;;;;5050792;28;20137;-76
2021/04/20 09:40:04;;;;;;;50.50;24.58;;;17.10;59.90;;;;;;5052431;28;20061;-77
2021/04/20 09:42:34;;;;;;;52.95;26.17;;;16.30;60.70;;;;;;5053252;28;20462;-76
2021/04/20 09:45:15;;;;;;;46.55;26.17;;;16.50;61.10;;;;;;5052093;28;20135;-77
2021/04/20 09:48:06;;;;;;;48.13;27.15;;;18.10;58.30;;;;;;5052547;28;20578;-76
2021/04/20 09:50:46;;;;;;;46.80;25.25;;;16.90;58.40;;;;;;5051575;28;20527;-80
2021/04/20 09:53:46;;;;;;;46.28;26.33;;;16.10;59.80;;;;;;5052979;28;20437;-75
2021/04/20 09:56:39;;;;;;;43.10;24.88;;;16.10;60.90;;;;;;5032088;28;20182;-75
2021/04/20 09:59:12;;;;;;;46.47;23.90;;;16.00;60.70;;;;;;5052252;28;20072;-75
2021/04/20 10:01:49;;;;;;;47.63;25.02;;;15.50;61.90;;;;;;5050929;28;20049;-76
2021/04/20 10:04:35;;;;;;;53.00;28.73;;;15.30;62.10;;;;;;5048632;28;20051;-73
2021/04/20 10:07:27;;;;;;;48.63;24.92;;;15.40;62.70;;;;;;5049464;28;20059;-75
2021/04/20 10:10:10;;;;;;;47.70;25.00;;;15.50;62.70;;;;;;5048929;28;20453;-74
2021/04/20 10:13:05;;;;;;;47.60;24.48;;;16.30;60.00;;;;;;5050314;28;20075;-74
2021/04/20 10:15:44;;;;;;;54.15;24.50;;;17.60;57.50;;;;;;5049448;28;20052;-78
2021/04/20 10:18:20;;;;;;;42.85;23.90;;;18.00;55.80;;;;;;5053259;28;20052;-75
2021/04/20 10:20:58;;;;;;;41.83;23.00;;;18.10;55.90;;;;;;5050955;28;20459;-73
2021/04/20 10:23:27;;;;;;;38.50;21.30;;;19.80;52.00;;;;;;5049484;28;21407;-73
2021/04/20 10:26:28;;;;;;;33.00;19.23;;;20.80;50.50;;;;;;5053829;28;20411;-73
2021/04/20 10:29:12;;;;;;;37.00;21.52;;;21.50;47.40;;;;;;5062120;28;20135;-76
2021/04/20 10:31:52;;;;;;;39.67;19.73;;;22.40;46.30;;;;;;5062300;28;20056;-74
2021/04/20 10:34:19;;;;;;;32.53;19.33;;;21.50;45.60;;;;;;5062313;28;20055;-77
2021/04/20 10:36:53;;;;;;;38.25;22.70;;;19.70;47.60;;;;;;5062889;28;20056;-77
2021/04/20 10:39:25;;;;;;;32.88;19.27;;;20.30;48.30;;;;;;5059355;28;20052;-76
2021/04/20 10:41:54;;;;;;;40.65;23.10;;;18.70;48.80;;;;;;5060975;28;20128;-80
2021/04/20 10:44:23;;;;;;;38.85;21.48;;;18.20;50.70;;;;;;5061790;28;20048;-79
2021/04/20 10:46:57;;;;;;;42.27;21.33;;;18.10;50.80;;;;;;5061891;28;20048;-81
2021/04/20 10:49:26;;;;;;;35.05;20.77;;;17.10;52.60;;;;;;5061208;28;20049;-79
2021/04/20 10:51:58;;;;;;;37.75;22.00;;;16.50;54.50;;;;;;5061053;28;20095;-80
2021/04/20 10:54:32;;;;;;;39.63;21.73;;;17.30;54.10;;;;;;5062112;28;20064;-80
2021/04/20 10:57:01;;;;;;;38.17;22.35;;;17.90;51.10;;;;;;5060066;28;20549;-77
2021/04/20 10:59:36;;;;;;;33.17;19.50;;;17.40;52.30;;;;;;5064665;28;20692;-78
2021/04/20 11:02:11;;;;;;;43.00;22.27;;;16.70;53.20;;;;;;5060254;28;20131;-78
2021/04/20 11:04:42;;;;;;;35.03;20.83;;;17.10;53.70;;;;;;5058334;28;20071;-79
2021/04/20 11:07:22;;;;;;;37.38;21.42;;;16.90;52.90;;;;;;5059475;28;21056;-81
2021/04/20 11:09:58;;;;;;;38.50;20.77;;;16.80;53.70;;;;;;5056429;28;20048;-74
2021/04/20 11:12:26;;;;;;;38.88;20.33;;;16.70;53.10;;;;;;5057895;28;20076;-74
2021/04/20 11:14:54;;;;;;;34.28;20.48;;;17.40;52.20;;;;;;5061932;28;20804;-73
2021/04/20 11:17:24;;;;;;;34.63;19.08;;;17.50;51.40;;;;;;5061301;28;20060;-73
2021/04/20 11:20:05;;;;;;;39.03;21.10;;;17.30;51.80;;;;;;5061826;28;20125;-76
2021/04/20 11:22:38;;;;;;;38.70;20.88;;;17.40;52.30;;;;;;5062044;28;20114;-73
2021/04/20 11:25:16;;;;;;;37.25;20.75;;;17.10;52.20;;;;;;5059005;28;20135;-73
2021/04/20 11:27:44;;;;;;;34.17;19.27;;;17.60;53.00;;;;;;5061401;28;20052;-72
2021/04/20 11:30:15;;;;;;;34.58;19.63;;;18.20;50.50;;;;;;5056594;28;20048;-74
2021/04/20 11:32:51;;;;;;;33.85;19.92;;;19.00;49.50;;;;;;5077280;28;21270;-73
2021/04/20 11:35:21;;;;;;;37.20;19.33;;;19.60;48.20;;;;;;5059626;28;20704;-71
2021/04/20 11:37:56;;;;;;;30.30;18.92;;;20.30;47.30;;;;;;5060765;28;20492;-72
2021/04/20 11:40:33;;;;;;;32.53;19.08;;;20.30;46.50;;;;;;5062508;28;20076;-72
2021/04/20 11:43:04;;;;;;;32.38;18.70;;;21.10;46.00;;;;;;5059462;28;20048;-72
2021/04/20 11:45:35;;;;;;;;;;;22.10;44.70;;;;;;5057543;28;20052;-72
2021/04/20 11:48:10;;;;;;;29.50;17.13;;;21.20;45.30;;;;;;5061233;28;19951;-74
2021/04/20 11:50:44;;;;;;;38.17;19.60;;;20.40;44.90;;;;;;5063593;28;20459;-74
2021/04/20 11:53:12;;;;;;;39.03;20.95;;;19.10;46.70;;;;;;5068360;28;20060;-73
2021/04/20 11:55:44;;;;;;;38.35;20.88;;;19.00;47.70;;;;;;5070352;28;20052;-73
2021/04/20 11:58:26;;;;;;;33.13;19.50;;;18.80;47.90;;;;;;5078903;28;20041;-73
2021/04/20 12:00:58;;;;;;;34.05;18.38;;;18.70;47.00;;;;;;5068528;28;20692;-74
2021/04/20 12:03:25;;;;;;;41.50;19.75;;;18.60;48.70;;;;;;5070260;28;20044;-73
2021/04/20 12:05:57;;;;;;;34.85;18.67;;;21.40;45.30;;;;;;5070519;28;20119;-73
2021/04/20 12:08:36;;;;;;;27.27;16.95;;;22.30;43.00;;;;;;5068619;28;20045;-73
2021/04/20 12:11:07;;;;;;;30.45;17.60;;;22.60;41.80;;;;;;5071723;28;20048;-73
2021/04/20 12:13:44;;;;;;;30.48;17.55;;;25.70;38.40;;;;;;5068207;28;20466;-73
2021/04/20 12:16:13;;;;;;;28.83;17.10;;;25.90;37.50;;;;;;5067017;28;20448;-73
2021/04/20 12:18:45;;;;;;;41.22;21.23;;;23.20;38.90;;;;;;5068590;28;20072;-75
2021/04/20 12:21:25;;;;;;;27.67;15.82;;;22.60;41.30;;;;;;5069046;28;20053;-74
2021/04/20 12:23:55;;;;;;;19.08;12.35;;;23.00;41.30;;;;;;5070820;28;20132;-72
2021/04/20 12:26:22;;;;;;;;;;;23.00;39.50;;;;;;5072901;28;20467;-73
2021/04/20 12:28:54;;;;;;;20.20;11.68;;;23.90;38.80;;;;;;5070174;28;19920;-72
2021/04/20 12:31:37;;;;;;;16.50;10.70;;;24.80;38.60;;;;;;5071333;28;20036;-73
2021/04/20 12:34:05;;;;;;;15.15;9.82;;;24.20;38.10;;;;;;5085524;28;20094;-73
2021/04/20 12:36:34;;;;;;;20.77;10.40;;;23.70;37.70;;;;;;5067989;28;20056;-73
2021/04/20 12:39:04;;;;;;;24.55;9.93;;;24.20;37.50;;;;;;5069995;28;20446;-73
2021/04/20 12:41:32;;;;;;;17.77;11.45;;;24.10;37.50;;;;;;5067989;28;20074;-73
2021/04/20 12:44:07;;;;;;;19.00;11.80;;;24.40;37.10;;;;;;5067965;28;20056;-73
2021/04/20 12:46:35;;;;;;;20.73;13.40;;;25.30;36.30;;;;;;5067866;28;20045;-73
2021/04/20 12:49:04;;;;;;;17.98;10.80;;;24.90;37.00;;;;;;5087859;28;22682;-73
2021/04/20 12:51:36;;;;;;;17.58;11.23;;;25.50;35.60;;;;;;5077885;28;20123;-73
2021/04/20 12:54:05;;;;;;;13.63;9.20;;;26.10;34.70;;;;;;5085820;28;20052;-73
2021/04/20 12:56:42;;;;;;;12.57;8.68;;;25.40;34.70;;;;;;5066008;28;20040;-73
2021/04/20 12:59:29;;;;;;;16.63;9.35;;;25.30;34.90;;;;;;5070072;28;20406;-74
2021/04/20 13:01:59;;;;;;;16.35;9.25;;;24.90;34.50;;;;;;5070065;28;20376;-74
2021/04/20 13:04:31;;;;;;;18.95;9.63;;;24.00;36.40;;;;;;5069891;28;20135;-73
2021/04/20 13:06:59;;;;;;;19.42;11.52;;;24.30;35.90;;;;;;5072331;28;20048;-73